sensor_id;sensor_type;location;lat;lon;timestamp;P1;durP1;ratioP1;P2;durP2;ratioP2
65567;SDS011;52211;50.154;8.682;2024-02-21T00:02:21;7.87;;;3.07;;
65567;SDS011;52211;50.154;8.682;2024-02-21T00:04:48;3.27;;;2.57;;
65567;SDS011;52211;50.154;8.682;2024-02-21T00:07:15;7.10;;;2.97;;
65567;SDS011;52211;50.154;8.682;2024-02-21T00:09:45;5.37;;;2.93;;
65567;SDS011;52211;50.154;8.682;2024-02-21T00:12:12;4.77;;;3.30;;
65567;SDS011;52211;50.154;8.682;2024-02-21T00:14:40;5.73;;;3.47;;
65567;SDS011;52211;50.154;8.682;2024-02-21T00:17:12;6.47;;;2.83;;
65567;SDS011;52211;50.154;8.682;2024-02-21T00:19:42;6.13;;;2.47;;
65567;SDS011;52211;50.154;8.682;2024-02-21T00:22:14;5.93;;;2.90;;
65567;SDS011;52211;50.154;8.682;2024-02-21T00:24:43;9.60;;;3.13;;
65567;SDS011;52211;50.154;8.682;2024-02-21T00:27:10;8.40;;;3.47;;
65567;SDS011;52211;50.154;8.682;2024-02-21T00:29:39;5.67;;;3.40;;
65567;SDS011;52211;50.154;8.682;2024-02-21T00:32:06;7.33;;;3.80;;
65567;SDS011;52211;50.154;8.682;2024-02-21T00:34:35;9.70;;;3.43;;
65567;SDS011;52211;50.154;8.682;2024-02-21T00:37:02;6.90;;;3.13;;
65567;SDS011;52211;50.154;8.682;2024-02-21T00:39:37;8.87;;;4.03;;
65567;SDS011;52211;50.154;8.682;2024-02-21T00:42:06;11.83;;;4.97;;
65567;SDS011;52211;50.154;8.682;2024-02-21T00:44:33;6.60;;;3.53;;
65567;SDS011;52211;50.154;8.682;2024-02-21T00:47:00;6.07;;;3.10;;
65567;SDS011;52211;50.154;8.682;2024-02-21T00:49:37;6.43;;;3.50;;
65567;SDS011;52211;50.154;8.682;2024-02-21T00:52:04;5.47;;;3.33;;
65567;SDS011;52211;50.154;8.682;2024-02-21T00:54:33;6.13;;;3.30;;
65567;SDS011;52211;50.154;8.682;2024-02-21T00:57:15;5.17;;;3.50;;
65567;SDS011;52211;50.154;8.682;2024-02-21T00:59:45;6.27;;;4.17;;
65567;SDS011;52211;50.154;8.682;2024-02-21T01:02:12;7.33;;;3.27;;
65567;SDS011;52211;50.154;8.682;2024-02-21T01:04:39;7.70;;;3.23;;
65567;SDS011;52211;50.154;8.682;2024-02-21T01:07:08;8.87;;;3.80;;
65567;SDS011;52211;50.154;8.682;2024-02-21T01:09:37;6.97;;;3.10;;
65567;SDS011;52211;50.154;8.682;2024-02-21T01:12:09;8.47;;;3.30;;
65567;SDS011;52211;50.154;8.682;2024-02-21T01:14:41;6.30;;;3.30;;
65567;SDS011;52211;50.154;8.682;2024-02-21T01:17:15;9.87;;;4.17;;
65567;SDS011;52211;50.154;8.682;2024-02-21T01:19:45;9.60;;;4.43;;
65567;SDS011;52211;50.154;8.682;2024-02-21T01:22:13;8.07;;;4.40;;
65567;SDS011;52211;50.154;8.682;2024-02-21T01:24:43;7.70;;;4.27;;
65567;SDS011;52211;50.154;8.682;2024-02-21T01:27:15;8.83;;;3.60;;
65567;SDS011;52211;50.154;8.682;2024-02-21T01:29:44;8.53;;;3.80;;
65567;SDS011;52211;50.154;8.682;2024-02-21T01:32:16;6.17;;;4.03;;
65567;SDS011;52211;50.154;8.682;2024-02-21T01:34:45;9.77;;;4.40;;
65567;SDS011;52211;50.154;8.682;2024-02-21T01:37:12;8.33;;;4.33;;
65567;SDS011;52211;50.154;8.682;2024-02-21T01:39:39;8.57;;;4.00;;
65567;SDS011;52211;50.154;8.682;2024-02-21T01:42:06;5.60;;;4.20;;
65567;SDS011;52211;50.154;8.682;2024-02-21T01:44:37;10.67;;;4.57;;
65567;SDS011;52211;50.154;8.682;2024-02-21T01:47:04;8.37;;;4.33;;
65567;SDS011;52211;50.154;8.682;2024-02-21T01:49:34;7.03;;;3.70;;
65567;SDS011;52211;50.154;8.682;2024-02-21T01:52:03;6.60;;;3.50;;
65567;SDS011;52211;50.154;8.682;2024-02-21T01:54:31;6.60;;;3.80;;
65567;SDS011;52211;50.154;8.682;2024-02-21T01:56:58;7.50;;;4.03;;
65567;SDS011;52211;50.154;8.682;2024-02-21T01:59:30;6.87;;;3.43;;
65567;SDS011;52211;50.154;8.682;2024-02-21T02:01:57;9.33;;;5.07;;
65567;SDS011;52211;50.154;8.682;2024-02-21T02:04:29;6.97;;;3.37;;
65567;SDS011;52211;50.154;8.682;2024-02-21T02:06:59;6.80;;;4.13;;
65567;SDS011;52211;50.154;8.682;2024-02-21T02:09:30;6.67;;;3.80;;
65567;SDS011;52211;50.154;8.682;2024-02-21T02:12:01;5.10;;;3.77;;
65567;SDS011;52211;50.154;8.682;2024-02-21T02:14:31;8.13;;;4.10;;
65567;SDS011;52211;50.154;8.682;2024-02-21T02:17:01;6.60;;;4.07;;
65567;SDS011;52211;50.154;8.682;2024-02-21T02:19:30;5.00;;;3.47;;
65567;SDS011;52211;50.154;8.682;2024-02-21T02:22:00;6.10;;;3.80;;
65567;SDS011;52211;50.154;8.682;2024-02-21T02:24:42;8.03;;;3.63;;
65567;SDS011;52211;50.154;8.682;2024-02-21T02:27:12;9.47;;;3.47;;
65567;SDS011;52211;50.154;8.682;2024-02-21T02:29:41;6.33;;;3.47;;
65567;SDS011;52211;50.154;8.682;2024-02-21T02:32:15;8.93;;;4.67;;
65567;SDS011;52211;50.154;8.682;2024-02-21T02:34:42;5.50;;;3.60;;
65567;SDS011;52211;50.154;8.682;2024-02-21T02:37:14;8.23;;;3.77;;
65567;SDS011;52211;50.154;8.682;2024-02-21T02:39:44;9.17;;;3.70;;
65567;SDS011;52211;50.154;8.682;2024-02-21T02:42:11;6.33;;;3.60;;
65567;SDS011;52211;50.154;8.682;2024-02-21T02:44:40;6.20;;;3.50;;
65567;SDS011;52211;50.154;8.682;2024-02-21T02:47:08;6.43;;;3.50;;
65567;SDS011;52211;50.154;8.682;2024-02-21T02:49:37;5.97;;;3.30;;
65567;SDS011;52211;50.154;8.682;2024-02-21T02:52:04;7.63;;;3.47;;
65567;SDS011;52211;50.154;8.682;2024-02-21T02:54:34;6.80;;;3.63;;
65567;SDS011;52211;50.154;8.682;2024-02-21T02:57:01;7.60;;;3.40;;
65567;SDS011;52211;50.154;8.682;2024-02-21T02:59:35;6.27;;;3.50;;
65567;SDS011;52211;50.154;8.682;2024-02-21T03:02:07;7.50;;;3.57;;
65567;SDS011;52211;50.154;8.682;2024-02-21T03:04:39;5.73;;;3.53;;
65567;SDS011;52211;50.154;8.682;2024-02-21T03:07:08;7.90;;;2.93;;
65567;SDS011;52211;50.154;8.682;2024-02-21T03:09:37;4.60;;;3.07;;
65567;SDS011;52211;50.154;8.682;2024-02-21T03:12:12;7.87;;;3.27;;
65567;SDS011;52211;50.154;8.682;2024-02-21T03:14:41;6.27;;;3.43;;
65567;SDS011;52211;50.154;8.682;2024-02-21T03:17:10;6.57;;;2.93;;
65567;SDS011;52211;50.154;8.682;2024-02-21T03:19:39;11.27;;;3.37;;
65567;SDS011;52211;50.154;8.682;2024-02-21T03:22:18;5.37;;;3.30;;
65567;SDS011;52211;50.154;8.682;2024-02-21T03:24:45;6.43;;;3.77;;
65567;SDS011;52211;50.154;8.682;2024-02-21T03:27:15;7.97;;;4.03;;
65567;SDS011;52211;50.154;8.682;2024-02-21T03:29:44;5.63;;;3.60;;
65567;SDS011;52211;50.154;8.682;2024-02-21T03:32:14;7.43;;;3.53;;
65567;SDS011;52211;50.154;8.682;2024-02-21T03:34:41;6.30;;;3.80;;
65567;SDS011;52211;50.154;8.682;2024-02-21T03:37:08;6.03;;;3.43;;
65567;SDS011;52211;50.154;8.682;2024-02-21T03:39:35;7.40;;;3.73;;
65567;SDS011;52211;50.154;8.682;2024-02-21T03:42:03;6.33;;;3.20;;
65567;SDS011;52211;50.154;8.682;2024-02-21T03:44:33;8.10;;;3.97;;
65567;SDS011;52211;50.154;8.682;2024-02-21T03:47:03;6.30;;;3.00;;
65567;SDS011;52211;50.154;8.682;2024-02-21T03:49:30;7.93;;;4.27;;
65567;SDS011;52211;50.154;8.682;2024-02-21T03:51:57;6.20;;;3.80;;
65567;SDS011;52211;50.154;8.682;2024-02-21T03:54:27;6.10;;;3.67;;
65567;SDS011;52211;50.154;8.682;2024-02-21T03:56:58;11.27;;;4.23;;
65567;SDS011;52211;50.154;8.682;2024-02-21T03:59:25;7.43;;;4.10;;
65567;SDS011;52211;50.154;8.682;2024-02-21T04:01:55;8.17;;;4.63;;
65567;SDS011;52211;50.154;8.682;2024-02-21T04:04:22;7.07;;;4.27;;
65567;SDS011;52211;50.154;8.682;2024-02-21T04:06:51;9.40;;;4.60;;
65567;SDS011;52211;50.154;8.682;2024-02-21T04:09:21;7.43;;;4.10;;
65567;SDS011;52211;50.154;8.682;2024-02-21T04:11:48;6.30;;;4.77;;
65567;SDS011;52211;50.154;8.682;2024-02-21T04:14:15;6.40;;;4.70;;
65567;SDS011;52211;50.154;8.682;2024-02-21T04:16:44;7.50;;;4.43;;
65567;SDS011;52211;50.154;8.682;2024-02-21T04:19:11;9.90;;;4.10;;
65567;SDS011;52211;50.154;8.682;2024-02-21T04:21:39;5.97;;;4.57;;
65567;SDS011;52211;50.154;8.682;2024-02-21T04:24:06;7.50;;;4.10;;
65567;SDS011;52211;50.154;8.682;2024-02-21T04:26:37;9.90;;;4.00;;
65567;SDS011;52211;50.154;8.682;2024-02-21T04:29:09;8.80;;;4.57;;
65567;SDS011;52211;50.154;8.682;2024-02-21T04:31:39;9.13;;;5.00;;
65567;SDS011;52211;50.154;8.682;2024-02-21T04:34:06;6.73;;;5.20;;
65567;SDS011;52211;50.154;8.682;2024-02-21T04:36:36;7.63;;;3.60;;
65567;SDS011;52211;50.154;8.682;2024-02-21T04:39:05;9.27;;;5.03;;
65567;SDS011;52211;50.154;8.682;2024-02-21T04:41:44;8.57;;;4.60;;
65567;SDS011;52211;50.154;8.682;2024-02-21T04:44:14;8.60;;;4.50;;
65567;SDS011;52211;50.154;8.682;2024-02-21T04:46:47;7.67;;;4.50;;
65567;SDS011;52211;50.154;8.682;2024-02-21T04:49:14;12.33;;;4.83;;
65567;SDS011;52211;50.154;8.682;2024-02-21T04:51:41;8.93;;;4.63;;
65567;SDS011;52211;50.154;8.682;2024-02-21T04:54:10;7.70;;;4.50;;
65567;SDS011;52211;50.154;8.682;2024-02-21T04:56:40;10.90;;;5.47;;
65567;SDS011;52211;50.154;8.682;2024-02-21T04:59:09;8.37;;;5.57;;
65567;SDS011;52211;50.154;8.682;2024-02-21T05:01:36;7.47;;;4.43;;
65567;SDS011;52211;50.154;8.682;2024-02-21T05:04:05;8.43;;;4.50;;
65567;SDS011;52211;50.154;8.682;2024-02-21T05:06:36;8.80;;;4.17;;
65567;SDS011;52211;50.154;8.682;2024-02-21T05:09:12;11.33;;;5.00;;
65567;SDS011;52211;50.154;8.682;2024-02-21T05:11:43;8.53;;;4.10;;
65567;SDS011;52211;50.154;8.682;2024-02-21T05:14:12;8.27;;;4.23;;
65567;SDS011;52211;50.154;8.682;2024-02-21T05:16:42;6.67;;;4.77;;
65567;SDS011;52211;50.154;8.682;2024-02-21T05:19:11;10.33;;;4.37;;
65567;SDS011;52211;50.154;8.682;2024-02-21T05:21:41;5.60;;;4.43;;
65567;SDS011;52211;50.154;8.682;2024-02-21T05:24:08;9.07;;;4.10;;
65567;SDS011;52211;50.154;8.682;2024-02-21T05:26:35;6.63;;;4.23;;
65567;SDS011;52211;50.154;8.682;2024-02-21T05:29:06;7.37;;;3.83;;
65567;SDS011;52211;50.154;8.682;2024-02-21T05:34:18;8.33;;;3.87;;
65567;SDS011;52211;50.154;8.682;2024-02-21T05:36:50;5.43;;;4.27;;
65567;SDS011;52211;50.154;8.682;2024-02-21T05:39:21;8.20;;;4.07;;
65567;SDS011;52211;50.154;8.682;2024-02-21T05:41:50;5.30;;;3.63;;
65567;SDS011;52211;50.154;8.682;2024-02-21T05:44:17;8.80;;;4.63;;
65567;SDS011;52211;50.154;8.682;2024-02-21T05:46:45;6.27;;;4.47;;
65567;SDS011;52211;50.154;8.682;2024-02-21T05:49:17;6.90;;;3.80;;
65567;SDS011;52211;50.154;8.682;2024-02-21T05:51:47;8.53;;;5.17;;
65567;SDS011;52211;50.154;8.682;2024-02-21T05:54:16;5.83;;;4.33;;
65567;SDS011;52211;50.154;8.682;2024-02-21T05:56:46;7.37;;;4.07;;
65567;SDS011;52211;50.154;8.682;2024-02-21T05:59:13;8.23;;;4.30;;
65567;SDS011;52211;50.154;8.682;2024-02-21T06:01:40;6.90;;;3.80;;
65567;SDS011;52211;50.154;8.682;2024-02-21T06:04:07;5.33;;;4.20;;
65567;SDS011;52211;50.154;8.682;2024-02-21T06:06:39;12.70;;;5.33;;
65567;SDS011;52211;50.154;8.682;2024-02-21T06:09:10;5.03;;;4.07;;
65567;SDS011;52211;50.154;8.682;2024-02-21T06:11:37;9.20;;;4.40;;
65567;SDS011;52211;50.154;8.682;2024-02-21T06:14:13;10.30;;;4.10;;
65567;SDS011;52211;50.154;8.682;2024-02-21T06:16:45;6.60;;;3.87;;
65567;SDS011;52211;50.154;8.682;2024-02-21T06:19:14;8.80;;;4.80;;
65567;SDS011;52211;50.154;8.682;2024-02-21T06:21:44;10.87;;;4.60;;
65567;SDS011;52211;50.154;8.682;2024-02-21T06:24:10;8.60;;;4.17;;
65567;SDS011;52211;50.154;8.682;2024-02-21T06:26:39;7.33;;;4.07;;
65567;SDS011;52211;50.154;8.682;2024-02-21T06:29:11;7.30;;;4.43;;
65567;SDS011;52211;50.154;8.682;2024-02-21T06:31:40;9.20;;;4.90;;
65567;SDS011;52211;50.154;8.682;2024-02-21T06:34:12;7.73;;;3.93;;
65567;SDS011;52211;50.154;8.682;2024-02-21T06:36:39;8.83;;;4.07;;
65567;SDS011;52211;50.154;8.682;2024-02-21T06:39:11;7.00;;;4.33;;
65567;SDS011;52211;50.154;8.682;2024-02-21T06:41:40;11.60;;;4.73;;
65567;SDS011;52211;50.154;8.682;2024-02-21T06:44:18;8.90;;;4.83;;
65567;SDS011;52211;50.154;8.682;2024-02-21T06:46:45;6.20;;;4.47;;
65567;SDS011;52211;50.154;8.682;2024-02-21T06:49:15;6.27;;;4.13;;
65567;SDS011;52211;50.154;8.682;2024-02-21T06:51:45;7.70;;;4.80;;
65567;SDS011;52211;50.154;8.682;2024-02-21T06:54:14;5.37;;;4.17;;
65567;SDS011;52211;50.154;8.682;2024-02-21T06:56:44;8.57;;;5.10;;
65567;SDS011;52211;50.154;8.682;2024-02-21T06:59:18;5.57;;;4.67;;
65567;SDS011;52211;50.154;8.682;2024-02-21T07:01:48;10.03;;;5.20;;
65567;SDS011;52211;50.154;8.682;2024-02-21T07:04:16;7.67;;;4.57;;
65567;SDS011;52211;50.154;8.682;2024-02-21T07:06:45;7.27;;;4.40;;
65567;SDS011;52211;50.154;8.682;2024-02-21T07:09:18;10.07;;;5.17;;
65567;SDS011;52211;50.154;8.682;2024-02-21T07:11:45;13.13;;;6.10;;
65567;SDS011;52211;50.154;8.682;2024-02-21T07:14:14;10.30;;;5.80;;
65567;SDS011;52211;50.154;8.682;2024-02-21T07:16:47;11.50;;;6.50;;
65567;SDS011;52211;50.154;8.682;2024-02-21T07:19:18;7.80;;;5.33;;
65567;SDS011;52211;50.154;8.682;2024-02-21T07:21:47;7.13;;;4.93;;
65567;SDS011;52211;50.154;8.682;2024-02-21T07:24:17;8.83;;;5.80;;
65567;SDS011;52211;50.154;8.682;2024-02-21T07:26:44;9.20;;;5.53;;
65567;SDS011;52211;50.154;8.682;2024-02-21T07:29:11;11.70;;;5.53;;
65567;SDS011;52211;50.154;8.682;2024-02-21T07:31:43;7.47;;;4.30;;
65567;SDS011;52211;50.154;8.682;2024-02-21T07:34:15;9.30;;;4.90;;
65567;SDS011;52211;50.154;8.682;2024-02-21T07:36:42;8.93;;;5.03;;
65567;SDS011;52211;50.154;8.682;2024-02-21T07:39:12;7.50;;;5.23;;
65567;SDS011;52211;50.154;8.682;2024-02-21T07:41:50;8.63;;;4.67;;
65567;SDS011;52211;50.154;8.682;2024-02-21T07:44:17;8.50;;;4.20;;
65567;SDS011;52211;50.154;8.682;2024-02-21T07:46:43;9.60;;;5.20;;
65567;SDS011;52211;50.154;8.682;2024-02-21T07:49:13;9.50;;;4.90;;
65567;SDS011;52211;50.154;8.682;2024-02-21T07:51:42;7.50;;;4.17;;
65567;SDS011;52211;50.154;8.682;2024-02-21T07:54:14;8.27;;;4.80;;
65567;SDS011;52211;50.154;8.682;2024-02-21T07:56:48;10.93;;;4.53;;
65567;SDS011;52211;50.154;8.682;2024-02-21T07:59:17;10.63;;;4.47;;
65567;SDS011;52211;50.154;8.682;2024-02-21T08:01:47;7.50;;;3.80;;
65567;SDS011;52211;50.154;8.682;2024-02-21T08:04:14;8.37;;;4.27;;
65567;SDS011;52211;50.154;8.682;2024-02-21T08:06:41;8.13;;;4.00;;
65567;SDS011;52211;50.154;8.682;2024-02-21T08:09:16;7.50;;;4.33;;
65567;SDS011;52211;50.154;8.682;2024-02-21T08:11:45;7.07;;;3.70;;
65567;SDS011;52211;50.154;8.682;2024-02-21T08:14:15;6.63;;;4.10;;
65567;SDS011;52211;50.154;8.682;2024-02-21T08:16:46;7.33;;;4.30;;
65567;SDS011;52211;50.154;8.682;2024-02-21T08:19:16;10.00;;;4.17;;
65567;SDS011;52211;50.154;8.682;2024-02-21T08:21:44;6.73;;;4.40;;
65567;SDS011;52211;50.154;8.682;2024-02-21T08:24:14;7.50;;;4.40;;
65567;SDS011;52211;50.154;8.682;2024-02-21T08:26:41;5.03;;;3.47;;
65567;SDS011;52211;50.154;8.682;2024-02-21T08:29:13;5.17;;;3.40;;
65567;SDS011;52211;50.154;8.682;2024-02-21T08:31:45;9.47;;;3.93;;
65567;SDS011;52211;50.154;8.682;2024-02-21T08:34:17;7.73;;;4.00;;
65567;SDS011;52211;50.154;8.682;2024-02-21T08:36:48;5.37;;;3.30;;
65567;SDS011;52211;50.154;8.682;2024-02-21T08:39:16;4.57;;;3.73;;
65567;SDS011;52211;50.154;8.682;2024-02-21T08:41:50;8.13;;;4.37;;
65567;SDS011;52211;50.154;8.682;2024-02-21T08:44:23;5.33;;;3.83;;
65567;SDS011;52211;50.154;8.682;2024-02-21T08:46:54;7.10;;;3.77;;
65567;SDS011;52211;50.154;8.682;2024-02-21T08:49:22;7.50;;;4.07;;
65567;SDS011;52211;50.154;8.682;2024-02-21T08:51:51;7.00;;;3.80;;
65567;SDS011;52211;50.154;8.682;2024-02-21T08:54:18;8.20;;;4.43;;
65567;SDS011;52211;50.154;8.682;2024-02-21T08:56:45;7.10;;;4.47;;
65567;SDS011;52211;50.154;8.682;2024-02-21T08:59:12;8.20;;;3.80;;
65567;SDS011;52211;50.154;8.682;2024-02-21T09:01:42;5.57;;;3.70;;
65567;SDS011;52211;50.154;8.682;2024-02-21T09:04:12;6.90;;;4.17;;
65567;SDS011;52211;50.154;8.682;2024-02-21T09:06:43;7.03;;;3.63;;
65567;SDS011;52211;50.154;8.682;2024-02-21T09:09:12;10.80;;;4.63;;
65567;SDS011;52211;50.154;8.682;2024-02-21T09:11:41;7.00;;;3.00;;
65567;SDS011;52211;50.154;8.682;2024-02-21T09:14:08;6.07;;;3.33;;
65567;SDS011;52211;50.154;8.682;2024-02-21T09:16:40;5.90;;;3.57;;
65567;SDS011;52211;50.154;8.682;2024-02-21T09:19:12;6.40;;;3.93;;
65567;SDS011;52211;50.154;8.682;2024-02-21T09:21:39;7.07;;;4.83;;
65567;SDS011;52211;50.154;8.682;2024-02-21T09:24:06;6.87;;;5.47;;
65567;SDS011;52211;50.154;8.682;2024-02-21T09:26:36;8.20;;;5.10;;
65567;SDS011;52211;50.154;8.682;2024-02-21T09:29:10;7.67;;;4.97;;
65567;SDS011;52211;50.154;8.682;2024-02-21T09:31:37;7.23;;;4.07;;
65567;SDS011;52211;50.154;8.682;2024-02-21T09:34:08;6.93;;;4.60;;
65567;SDS011;52211;50.154;8.682;2024-02-21T09:36:39;7.23;;;3.60;;
65567;SDS011;52211;50.154;8.682;2024-02-21T09:39:07;6.67;;;3.20;;
65567;SDS011;52211;50.154;8.682;2024-02-21T09:41:44;8.37;;;4.50;;
65567;SDS011;52211;50.154;8.682;2024-02-21T09:44:20;5.63;;;3.57;;
65567;SDS011;52211;50.154;8.682;2024-02-21T09:49:34;5.97;;;3.37;;
65567;SDS011;52211;50.154;8.682;2024-02-21T09:52:09;6.67;;;3.40;;
65567;SDS011;52211;50.154;8.682;2024-02-21T09:54:40;5.20;;;3.00;;
65567;SDS011;52211;50.154;8.682;2024-02-21T09:57:10;7.20;;;3.17;;
65567;SDS011;52211;50.154;8.682;2024-02-21T09:59:38;8.40;;;3.70;;
65567;SDS011;52211;50.154;8.682;2024-02-21T10:02:09;6.03;;;3.33;;
65567;SDS011;52211;50.154;8.682;2024-02-21T10:04:39;4.57;;;3.00;;
65567;SDS011;52211;50.154;8.682;2024-02-21T10:07:07;8.67;;;3.23;;
65567;SDS011;52211;50.154;8.682;2024-02-21T10:09:37;4.50;;;3.10;;
65567;SDS011;52211;50.154;8.682;2024-02-21T10:12:08;8.10;;;3.77;;
65567;SDS011;52211;50.154;8.682;2024-02-21T10:14:42;7.13;;;3.73;;
65567;SDS011;52211;50.154;8.682;2024-02-21T10:17:16;2.90;;;2.57;;
65567;SDS011;52211;50.154;8.682;2024-02-21T10:19:46;8.73;;;3.13;;
65567;SDS011;52211;50.154;8.682;2024-02-21T10:22:13;3.73;;;2.90;;
65567;SDS011;52211;50.154;8.682;2024-02-21T10:24:47;9.43;;;3.23;;
65567;SDS011;52211;50.154;8.682;2024-02-21T10:27:16;4.60;;;2.70;;
65567;SDS011;52211;50.154;8.682;2024-02-21T10:29:48;5.70;;;3.07;;
65567;SDS011;52211;50.154;8.682;2024-02-21T10:32:19;4.97;;;2.47;;
65567;SDS011;52211;50.154;8.682;2024-02-21T10:34:49;5.60;;;2.67;;
65567;SDS011;52211;50.154;8.682;2024-02-21T10:37:20;3.30;;;2.50;;
65567;SDS011;52211;50.154;8.682;2024-02-21T10:39:50;6.87;;;3.30;;
65567;SDS011;52211;50.154;8.682;2024-02-21T10:42:21;4.70;;;2.47;;
65567;SDS011;52211;50.154;8.682;2024-02-21T10:44:51;4.90;;;2.13;;
65567;SDS011;52211;50.154;8.682;2024-02-21T10:47:20;5.70;;;2.60;;
65567;SDS011;52211;50.154;8.682;2024-02-21T10:50:03;4.73;;;2.73;;
65567;SDS011;52211;50.154;8.682;2024-02-21T10:55:56;6.57;;;2.90;;
65567;SDS011;52211;50.154;8.682;2024-02-21T10:58:41;3.03;;;1.90;;
65567;SDS011;52211;50.154;8.682;2024-02-21T11:01:10;5.77;;;2.87;;
65567;SDS011;52211;50.154;8.682;2024-02-21T11:03:42;6.13;;;2.77;;
65567;SDS011;52211;50.154;8.682;2024-02-21T11:06:11;6.10;;;2.13;;
65567;SDS011;52211;50.154;8.682;2024-02-21T11:08:43;3.70;;;2.70;;
65567;SDS011;52211;50.154;8.682;2024-02-21T11:11:15;2.40;;;2.00;;
65567;SDS011;52211;50.154;8.682;2024-02-21T11:16:48;5.50;;;2.87;;
65567;SDS011;52211;50.154;8.682;2024-02-21T11:19:21;8.43;;;3.00;;
65567;SDS011;52211;50.154;8.682;2024-02-21T11:21:53;6.90;;;2.80;;
65567;SDS011;52211;50.154;8.682;2024-02-21T11:27:20;4.80;;;2.73;;
65567;SDS011;52211;50.154;8.682;2024-02-21T11:29:55;5.50;;;2.50;;
65567;SDS011;52211;50.154;8.682;2024-02-21T11:32:26;3.90;;;2.60;;
65567;SDS011;52211;50.154;8.682;2024-02-21T11:34:54;5.90;;;2.80;;
65567;SDS011;52211;50.154;8.682;2024-02-21T11:37:33;4.87;;;2.73;;
65567;SDS011;52211;50.154;8.682;2024-02-21T11:40:06;3.50;;;2.27;;
65567;SDS011;52211;50.154;8.682;2024-02-21T11:42:40;6.67;;;2.97;;
65567;SDS011;52211;50.154;8.682;2024-02-21T11:45:07;3.17;;;2.87;;
65567;SDS011;52211;50.154;8.682;2024-02-21T11:47:35;4.80;;;2.57;;
65567;SDS011;52211;50.154;8.682;2024-02-21T11:50:09;3.10;;;2.47;;
65567;SDS011;52211;50.154;8.682;2024-02-21T11:52:37;4.03;;;2.60;;
65567;SDS011;52211;50.154;8.682;2024-02-21T11:55:07;7.87;;;3.70;;
65567;SDS011;52211;50.154;8.682;2024-02-21T11:57:37;4.80;;;2.90;;
65567;SDS011;52211;50.154;8.682;2024-02-21T12:00:12;5.70;;;2.53;;
65567;SDS011;52211;50.154;8.682;2024-02-21T12:02:46;4.57;;;2.73;;
65567;SDS011;52211;50.154;8.682;2024-02-21T12:05:18;6.93;;;2.57;;
65567;SDS011;52211;50.154;8.682;2024-02-21T12:07:46;5.83;;;2.53;;
65567;SDS011;52211;50.154;8.682;2024-02-21T12:10:16;4.13;;;2.50;;
65567;SDS011;52211;50.154;8.682;2024-02-21T12:12:43;5.93;;;2.77;;
65567;SDS011;52211;50.154;8.682;2024-02-21T12:15:12;7.23;;;2.67;;
65567;SDS011;52211;50.154;8.682;2024-02-21T12:17:41;7.43;;;3.07;;
65567;SDS011;52211;50.154;8.682;2024-02-21T12:20:11;6.70;;;2.97;;
65567;SDS011;52211;50.154;8.682;2024-02-21T12:22:42;4.63;;;2.80;;
65567;SDS011;52211;50.154;8.682;2024-02-21T12:25:18;7.30;;;3.07;;
65567;SDS011;52211;50.154;8.682;2024-02-21T12:27:51;3.27;;;2.37;;
65567;SDS011;52211;50.154;8.682;2024-02-21T12:30:22;5.87;;;2.77;;
65567;SDS011;52211;50.154;8.682;2024-02-21T12:32:52;6.47;;;3.10;;
65567;SDS011;52211;50.154;8.682;2024-02-21T12:35:21;5.37;;;2.63;;
65567;SDS011;52211;50.154;8.682;2024-02-21T12:37:53;9.10;;;2.87;;
65567;SDS011;52211;50.154;8.682;2024-02-21T12:40:25;6.47;;;3.27;;
65567;SDS011;52211;50.154;8.682;2024-02-21T12:42:52;5.60;;;2.77;;
65567;SDS011;52211;50.154;8.682;2024-02-21T12:45:25;4.60;;;2.93;;
65567;SDS011;52211;50.154;8.682;2024-02-21T12:47:52;6.27;;;2.90;;
65567;SDS011;52211;50.154;8.682;2024-02-21T12:50:19;6.43;;;3.20;;
65567;SDS011;52211;50.154;8.682;2024-02-21T12:52:49;5.43;;;2.97;;
65567;SDS011;52211;50.154;8.682;2024-02-21T12:55:26;3.23;;;2.73;;
65567;SDS011;52211;50.154;8.682;2024-02-21T12:57:53;5.13;;;2.70;;
65567;SDS011;52211;50.154;8.682;2024-02-21T13:00:22;3.50;;;2.73;;
65567;SDS011;52211;50.154;8.682;2024-02-21T13:02:56;3.77;;;2.47;;
65567;SDS011;52211;50.154;8.682;2024-02-21T13:05:25;3.10;;;2.27;;
65567;SDS011;52211;50.154;8.682;2024-02-21T13:07:58;3.57;;;2.53;;
65567;SDS011;52211;50.154;8.682;2024-02-21T13:10:30;4.43;;;2.77;;
65567;SDS011;52211;50.154;8.682;2024-02-21T13:12:57;6.37;;;3.03;;
65567;SDS011;52211;50.154;8.682;2024-02-21T13:15:26;4.10;;;2.30;;
65567;SDS011;52211;50.154;8.682;2024-02-21T13:17:59;5.70;;;3.23;;
65567;SDS011;52211;50.154;8.682;2024-02-21T13:20:26;3.93;;;2.50;;
65567;SDS011;52211;50.154;8.682;2024-02-21T13:22:58;5.23;;;3.10;;
65567;SDS011;52211;50.154;8.682;2024-02-21T13:25:29;4.33;;;2.20;;
65567;SDS011;52211;50.154;8.682;2024-02-21T13:27:58;7.37;;;2.90;;
65567;SDS011;52211;50.154;8.682;2024-02-21T13:30:28;5.63;;;2.97;;
65567;SDS011;52211;50.154;8.682;2024-02-21T13:32:57;4.43;;;1.80;;
65567;SDS011;52211;50.154;8.682;2024-02-21T13:35:29;5.10;;;2.57;;
65567;SDS011;52211;50.154;8.682;2024-02-21T13:37:58;3.47;;;2.47;;
65567;SDS011;52211;50.154;8.682;2024-02-21T13:40:28;4.13;;;2.53;;
65567;SDS011;52211;50.154;8.682;2024-02-21T13:42:55;5.70;;;2.30;;
65567;SDS011;52211;50.154;8.682;2024-02-21T13:45:26;5.67;;;2.23;;
65567;SDS011;52211;50.154;8.682;2024-02-21T13:47:57;3.90;;;2.30;;
65567;SDS011;52211;50.154;8.682;2024-02-21T13:50:29;6.80;;;2.80;;
65567;SDS011;52211;50.154;8.682;2024-02-21T13:53:08;3.67;;;2.23;;
65567;SDS011;52211;50.154;8.682;2024-02-21T13:55:37;3.40;;;2.20;;
65567;SDS011;52211;50.154;8.682;2024-02-21T13:58:06;4.27;;;2.27;;
65567;SDS011;52211;50.154;8.682;2024-02-21T14:00:38;3.03;;;1.77;;
65567;SDS011;52211;50.154;8.682;2024-02-21T14:03:07;4.40;;;2.43;;
65567;SDS011;52211;50.154;8.682;2024-02-21T14:05:34;3.77;;;2.00;;
65567;SDS011;52211;50.154;8.682;2024-02-21T14:08:10;6.33;;;2.40;;
65567;SDS011;52211;50.154;8.682;2024-02-21T14:10:40;3.83;;;1.80;;
65567;SDS011;52211;50.154;8.682;2024-02-21T14:13:07;3.30;;;2.33;;
65567;SDS011;52211;50.154;8.682;2024-02-21T14:15:41;4.10;;;2.07;;
65567;SDS011;52211;50.154;8.682;2024-02-21T14:18:14;4.40;;;2.23;;
65567;SDS011;52211;50.154;8.682;2024-02-21T14:20:43;8.50;;;2.20;;
65567;SDS011;52211;50.154;8.682;2024-02-21T14:23:13;3.10;;;1.93;;
65567;SDS011;52211;50.154;8.682;2024-02-21T14:25:42;3.07;;;1.97;;
65567;SDS011;52211;50.154;8.682;2024-02-21T14:28:09;3.13;;;2.10;;
65567;SDS011;52211;50.154;8.682;2024-02-21T14:30:36;4.67;;;1.77;;
65567;SDS011;52211;50.154;8.682;2024-02-21T14:33:06;5.20;;;2.57;;
65567;SDS011;52211;50.154;8.682;2024-02-21T14:35:34;5.17;;;2.07;;
65567;SDS011;52211;50.154;8.682;2024-02-21T14:38:01;3.87;;;2.10;;
65567;SDS011;52211;50.154;8.682;2024-02-21T14:40:28;1.97;;;1.70;;
65567;SDS011;52211;50.154;8.682;2024-02-21T14:42:56;4.20;;;2.00;;
65567;SDS011;52211;50.154;8.682;2024-02-21T14:45:23;4.80;;;2.13;;
65567;SDS011;52211;50.154;8.682;2024-02-21T14:47:55;3.27;;;2.13;;
65567;SDS011;52211;50.154;8.682;2024-02-21T14:50:24;3.10;;;2.07;;
65567;SDS011;52211;50.154;8.682;2024-02-21T14:52:51;3.27;;;1.83;;
65567;SDS011;52211;50.154;8.682;2024-02-21T14:55:21;5.33;;;2.03;;
65567;SDS011;52211;50.154;8.682;2024-02-21T14:57:49;6.00;;;1.77;;
65567;SDS011;52211;50.154;8.682;2024-02-21T15:00:19;5.73;;;2.30;;
65567;SDS011;52211;50.154;8.682;2024-02-21T15:02:52;6.00;;;1.67;;
65567;SDS011;52211;50.154;8.682;2024-02-21T15:05:21;4.80;;;2.63;;
65567;SDS011;52211;50.154;8.682;2024-02-21T15:07:48;3.07;;;1.70;;
65567;SDS011;52211;50.154;8.682;2024-02-21T15:10:16;3.93;;;2.10;;
65567;SDS011;52211;50.154;8.682;2024-02-21T15:12:47;5.70;;;1.90;;
65567;SDS011;52211;50.154;8.682;2024-02-21T15:15:14;2.67;;;1.83;;
65567;SDS011;52211;50.154;8.682;2024-02-21T15:17:43;4.00;;;2.20;;
65567;SDS011;52211;50.154;8.682;2024-02-21T15:20:10;4.90;;;2.30;;